createdAt,value
2023-01-12T00:00:51.028Z,6.00
2023-01-12T00:03:17.776Z,6.00
2023-01-12T00:05:45.850Z,6.20
2023-01-12T00:08:12.581Z,6.20
2023-01-12T00:10:39.403Z,6.20
2023-01-12T00:13:06.134Z,6.10
2023-01-12T00:15:34.971Z,6.10
2023-01-12T00:18:01.670Z,6.10
2023-01-12T00:20:28.732Z,6.20
2023-01-12T00:22:56.807Z,6.10
2023-01-12T00:25:23.554Z,6.10
2023-01-12T00:27:50.514Z,6.10
2023-01-12T00:30:17.529Z,6.10
2023-01-12T00:32:44.229Z,6.10
2023-01-12T00:35:10.941Z,6.10
2023-01-12T00:37:37.695Z,6.10
2023-01-12T00:40:06.899Z,6.10
2023-01-12T00:42:33.808Z,6.10
2023-01-12T00:45:00.554Z,6.10
2023-01-12T00:47:27.310Z,6.10
2023-01-12T00:49:54.398Z,6.20
2023-01-12T00:52:30.482Z,6.30
2023-01-12T00:54:58.223Z,6.30
2023-01-12T00:57:26.725Z,6.30
2023-01-12T00:59:53.432Z,6.20
2023-01-12T01:02:20.257Z,6.30
2023-01-12T01:04:47.078Z,6.30
2023-01-12T01:07:14.183Z,6.30
2023-01-12T01:09:40.896Z,6.30
2023-01-12T01:12:07.830Z,6.30
2023-01-12T01:14:36.045Z,6.30
2023-01-12T01:17:03.926Z,6.40
2023-01-12T01:19:30.687Z,6.40
2023-01-12T01:21:57.380Z,6.40
2023-01-12T01:24:26.537Z,6.40
2023-01-12T01:26:53.274Z,6.30
2023-01-12T01:29:20.341Z,6.40
2023-01-12T01:31:48.421Z,6.30
2023-01-12T01:34:15.384Z,6.40
2023-01-12T01:36:42.164Z,6.30
2023-01-12T01:39:09.123Z,6.30
2023-01-12T01:41:35.988Z,6.30
2023-01-12T01:44:04.587Z,6.30
2023-01-12T01:46:40.247Z,6.30
2023-01-12T01:49:23.489Z,6.20
2023-01-12T01:51:51.782Z,6.20
2023-01-12T01:54:18.823Z,6.20
2023-01-12T01:56:45.812Z,6.30
2023-01-12T01:59:15.603Z,6.30
2023-01-12T02:01:42.589Z,6.30
2023-01-12T02:04:10.016Z,6.30
2023-01-12T02:06:38.400Z,6.20
2023-01-12T02:09:09.666Z,6.20
2023-01-12T02:11:36.383Z,6.30
2023-01-12T02:14:03.121Z,6.30
2023-01-12T02:16:33.230Z,6.30
2023-01-12T02:19:19.131Z,6.20
2023-01-12T02:22:29.730Z,6.20
2023-01-12T02:25:32.965Z,6.30
2023-01-12T02:28:19.402Z,6.20
2023-01-12T02:31:29.234Z,6.10
2023-01-12T02:34:06.618Z,6.10
2023-01-12T02:36:40.819Z,6.10
2023-01-12T02:39:15.281Z,6.20
2023-01-12T02:41:50.056Z,6.20
2023-01-12T02:44:26.898Z,6.20
2023-01-12T02:46:54.544Z,6.30
2023-01-12T02:49:27.592Z,6.20
2023-01-12T02:51:57.268Z,6.20
2023-01-12T02:54:25.755Z,6.20
2023-01-12T02:56:55.063Z,6.40
2023-01-12T02:59:24.862Z,6.40
2023-01-12T03:01:53.371Z,6.40
2023-01-12T03:04:22.479Z,6.40
2023-01-12T03:07:22.930Z,6.40
2023-01-12T03:09:53.766Z,6.30
2023-01-12T03:12:24.484Z,6.40
2023-01-12T03:14:53.832Z,6.40
2023-01-12T03:17:25.668Z,6.40
2023-01-12T03:19:57.116Z,6.50
2023-01-12T03:22:24.534Z,6.50
2023-01-12T03:24:57.226Z,6.30
2023-01-12T03:27:28.177Z,6.30
2023-01-12T03:30:00.752Z,6.30
2023-01-12T03:32:27.929Z,6.40
2023-01-12T03:34:56.198Z,6.40
2023-01-12T03:37:28.164Z,6.40
2023-01-12T03:40:01.206Z,6.40
2023-01-12T03:42:35.752Z,6.20
2023-01-12T03:45:14.882Z,6.20
2023-01-12T03:47:43.330Z,6.30
2023-01-12T03:50:16.858Z,6.30
2023-01-12T03:52:45.345Z,6.30
2023-01-12T03:55:15.601Z,6.20
2023-01-12T03:57:44.246Z,6.20
2023-01-12T04:00:13.377Z,6.20
2023-01-12T04:02:42.507Z,6.30
2023-01-12T04:05:11.928Z,6.20
2023-01-12T04:07:38.665Z,6.20
2023-01-12T04:10:06.515Z,6.30
2023-01-12T04:12:33.203Z,6.20
2023-01-12T04:14:59.938Z,6.20
2023-01-12T04:17:26.671Z,6.20
2023-01-12T04:19:53.411Z,6.20
2023-01-12T04:22:21.479Z,6.30
2023-01-12T04:24:48.173Z,6.20
2023-01-12T04:27:15.404Z,6.20
2023-01-12T04:29:42.160Z,6.20
2023-01-12T04:32:09.009Z,6.40
2023-01-12T04:34:35.755Z,6.40
2023-01-12T04:37:03.208Z,6.40
2023-01-12T04:39:31.309Z,6.40
2023-01-12T04:41:58.052Z,6.40
2023-01-12T04:44:24.851Z,6.40
2023-01-12T04:46:52.327Z,6.40
2023-01-12T04:49:19.072Z,6.40
2023-01-12T04:51:48.206Z,6.40
2023-01-12T04:54:15.004Z,6.50
2023-01-12T04:56:43.069Z,6.40
2023-01-12T04:59:09.812Z,6.30
2023-01-12T05:01:36.672Z,6.20
2023-01-12T05:04:04.192Z,6.20
2023-01-12T05:06:32.239Z,6.50
2023-01-12T05:08:58.940Z,6.90
2023-01-12T05:11:27.551Z,6.80
2023-01-12T05:13:56.336Z,6.70
2023-01-12T05:16:23.885Z,6.60
2023-01-12T05:18:50.994Z,6.70
2023-01-12T05:21:17.917Z,6.70
2023-01-12T05:23:45.133Z,6.60
2023-01-12T05:26:12.243Z,6.60
2023-01-12T05:28:39.054Z,6.60
2023-01-12T05:31:09.422Z,6.70
2023-01-12T05:33:37.278Z,6.70
2023-01-12T05:36:04.963Z,6.90
2023-01-12T05:38:31.790Z,6.70
2023-01-12T05:40:59.400Z,6.70
2023-01-12T05:43:26.481Z,6.60
2023-01-12T05:45:53.186Z,6.60
2023-01-12T05:48:21.247Z,6.60
2023-01-12T05:50:47.971Z,6.60
2023-01-12T05:53:14.741Z,6.70
2023-01-12T05:55:41.458Z,6.70
2023-01-12T05:58:08.168Z,6.70
2023-01-12T06:00:34.941Z,6.60
2023-01-12T06:03:02.308Z,6.50
2023-01-12T06:05:30.439Z,6.60
2023-01-12T06:07:59.031Z,6.60
2023-01-12T06:10:25.758Z,6.70
2023-01-12T06:12:52.501Z,6.70
2023-01-12T06:15:19.281Z,6.80
2023-01-12T06:17:46.034Z,6.80
2023-01-12T06:20:13.399Z,6.80
2023-01-12T06:22:41.462Z,6.70
2023-01-12T06:25:09.075Z,6.80
2023-01-12T06:27:35.781Z,6.80
2023-01-12T06:30:02.527Z,6.80
2023-01-12T06:32:30.745Z,6.80
2023-01-12T06:35:01.628Z,6.80
2023-01-12T06:37:33.752Z,6.90
2023-01-12T06:40:01.876Z,6.90
2023-01-12T06:42:28.591Z,6.90
2023-01-12T06:44:55.581Z,6.90
2023-01-12T06:47:22.559Z,6.90
2023-01-12T06:49:49.628Z,6.90
2023-01-12T06:52:16.378Z,6.90
2023-01-12T06:54:43.094Z,6.90
2023-01-12T06:57:11.162Z,6.90
2023-01-12T06:59:39.035Z,6.90
2023-01-12T07:02:06.205Z,7.00
2023-01-12T07:04:33.051Z,7.00
2023-01-12T07:07:00.076Z,7.10
2023-01-12T07:09:26.801Z,7.10
2023-01-12T07:11:54.199Z,7.10
2023-01-12T07:14:22.227Z,7.10
2023-01-12T07:16:49.003Z,7.20
2023-01-12T07:19:15.785Z,7.10
2023-01-12T07:21:42.477Z,7.20
2023-01-12T07:24:09.361Z,7.20
2023-01-12T07:26:36.329Z,7.20
2023-01-12T07:29:03.438Z,7.10
2023-01-12T07:31:31.553Z,7.10
2023-01-12T07:33:58.331Z,7.20
2023-01-12T07:36:25.073Z,7.20
2023-01-12T07:38:51.890Z,7.20
2023-01-12T07:41:19.059Z,7.10
2023-01-12T07:43:47.308Z,7.20
2023-01-12T07:46:14.036Z,7.20
2023-01-12T07:48:44.168Z,7.30
2023-01-12T07:51:10.852Z,7.20
2023-01-12T07:53:37.596Z,7.30
2023-01-12T07:56:04.438Z,7.20
2023-01-12T07:58:31.184Z,7.20
2023-01-12T08:00:58.949Z,7.10
2023-01-12T08:03:25.868Z,7.20
2023-01-12T08:05:54.878Z,7.20
2023-01-12T08:08:21.635Z,7.20
2023-01-12T08:10:48.358Z,7.20
2023-01-12T08:13:15.090Z,7.20
2023-01-12T08:15:44.952Z,7.30
2023-01-12T08:18:18.120Z,7.20
2023-01-12T08:20:45.372Z,7.20
2023-01-12T08:23:17.731Z,7.30
2023-01-12T08:25:48.485Z,7.30
2023-01-12T08:28:18.653Z,7.30
2023-01-12T08:30:46.948Z,7.40
2023-01-12T08:33:14.048Z,7.30
2023-01-12T08:35:41.022Z,7.40
2023-01-12T08:38:07.837Z,7.40
2023-01-12T08:40:36.135Z,7.40
2023-01-12T08:43:02.912Z,7.40
2023-01-12T08:45:29.650Z,7.50
2023-01-12T08:47:56.346Z,7.40
2023-01-12T08:50:23.102Z,7.40
2023-01-12T08:52:49.808Z,7.40
2023-01-12T08:55:16.594Z,7.40
2023-01-12T08:57:45.459Z,7.40
2023-01-12T09:00:13.299Z,7.40
2023-01-12T09:02:40.099Z,7.40
2023-01-12T09:05:07.518Z,7.40
2023-01-12T09:07:34.296Z,7.50
2023-01-12T09:10:01.040Z,7.50
2023-01-12T09:12:27.822Z,7.50
2023-01-12T09:14:55.930Z,7.50
2023-01-12T09:17:22.674Z,7.60
2023-01-12T09:19:49.422Z,7.60
2023-01-12T09:22:16.159Z,7.70
2023-01-12T09:24:42.857Z,7.60
2023-01-12T09:27:10.887Z,7.70
2023-01-12T09:29:37.563Z,7.70
2023-01-12T09:32:05.860Z,7.80
2023-01-12T09:34:32.634Z,7.80
2023-01-12T09:36:59.696Z,7.80
2023-01-12T09:39:28.057Z,7.80
2023-01-12T09:41:56.370Z,7.80
2023-01-12T09:44:28.376Z,7.80
2023-01-12T09:46:58.251Z,7.80
2023-01-12T09:49:35.588Z,7.80
2023-01-12T09:52:12.810Z,7.80
2023-01-12T09:54:39.784Z,7.80
2023-01-12T09:57:28.812Z,7.80
2023-01-12T10:00:01.664Z,7.80
2023-01-12T10:02:33.309Z,7.80
2023-01-12T10:05:06.646Z,7.80
2023-01-12T10:07:33.531Z,7.80
2023-01-12T10:10:00.451Z,7.80
2023-01-12T10:12:33.914Z,7.90
2023-01-12T10:15:29.675Z,7.90
2023-01-12T10:18:02.439Z,7.90
2023-01-12T10:20:36.119Z,7.80
2023-01-12T10:23:11.684Z,7.90
2023-01-12T10:25:41.119Z,7.90
2023-01-12T10:28:12.517Z,7.90
2023-01-12T10:30:41.670Z,7.90
2023-01-12T10:33:09.978Z,8.00
2023-01-12T10:35:49.067Z,8.00
2023-01-12T10:38:22.793Z,8.00
2023-01-12T10:41:06.753Z,8.00
2023-01-12T10:43:33.794Z,8.10
2023-01-12T10:46:18.768Z,8.00
2023-01-12T10:48:47.559Z,8.10
2023-01-12T10:51:25.211Z,8.10
2023-01-12T10:53:55.744Z,8.10
2023-01-12T10:56:29.693Z,8.20
2023-01-12T10:58:59.519Z,8.20
2023-01-12T11:01:41.446Z,8.20
2023-01-12T11:04:13.456Z,8.20
2023-01-12T11:06:44.888Z,8.20
2023-01-12T11:09:21.845Z,8.20
2023-01-12T11:11:54.782Z,8.20
2023-01-12T11:14:28.011Z,8.20
2023-01-12T11:17:08.611Z,8.20
2023-01-12T11:19:40.967Z,8.20
2023-01-12T11:22:13.395Z,8.20
2023-01-12T11:24:44.402Z,8.20
2023-01-12T11:27:17.269Z,8.20
2023-01-12T11:29:54.399Z,8.10
2023-01-12T11:32:32.375Z,8.20
2023-01-12T11:35:04.790Z,8.20
2023-01-12T11:37:37.860Z,8.20
2023-01-12T11:40:15.697Z,8.20
2023-01-12T11:42:43.446Z,8.20
2023-01-12T11:45:16.984Z,8.20
2023-01-12T11:47:49.531Z,8.20
2023-01-12T11:50:21.015Z,8.30
2023-01-12T11:52:49.894Z,8.30
2023-01-12T11:55:23.414Z,8.30
2023-01-12T11:58:03.390Z,8.30
2023-01-12T12:00:42.675Z,8.40
2023-01-12T12:03:47.928Z,8.40
2023-01-12T12:06:43.678Z,8.40
2023-01-12T12:09:34.539Z,8.50
2023-01-12T12:12:04.591Z,8.40
2023-01-12T12:14:46.346Z,8.40
2023-01-12T12:17:18.719Z,8.30
2023-01-12T12:19:54.681Z,8.30
2023-01-12T12:22:34.297Z,8.30
2023-01-12T12:25:15.491Z,8.30
2023-01-12T12:28:02.325Z,8.30
2023-01-12T12:31:00.447Z,8.30
2023-01-12T12:33:36.991Z,8.30
2023-01-12T12:36:13.915Z,8.30
2023-01-12T12:39:07.768Z,8.30
2023-01-12T12:41:41.613Z,8.30
2023-01-12T12:44:28.669Z,8.30
2023-01-12T12:47:00.501Z,8.30
2023-01-12T12:49:30.969Z,8.30
2023-01-12T12:51:58.954Z,8.20
2023-01-12T12:54:27.672Z,8.20
2023-01-12T12:56:56.328Z,8.20
2023-01-12T12:59:52.510Z,8.20
2023-01-12T13:02:37.283Z,8.20
2023-01-12T13:05:06.954Z,8.20
2023-01-12T13:07:37.680Z,8.20
2023-01-12T13:10:36.901Z,8.10
2023-01-12T13:13:24.331Z,8.20
2023-01-12T13:15:51.199Z,8.10
2023-01-12T13:18:42.636Z,8.20
2023-01-12T13:21:28.710Z,8.20
2023-01-12T13:24:24.984Z,8.20
2023-01-12T13:26:51.783Z,8.10
2023-01-12T13:29:43.668Z,8.10
2023-01-12T13:32:42.067Z,8.10
2023-01-12T13:35:53.045Z,8.10
2023-01-12T13:38:35.376Z,8.10
2023-01-12T13:41:04.458Z,8.10
2023-01-12T13:43:37.842Z,8.10
2023-01-12T13:46:14.548Z,8.20
2023-01-12T13:48:44.121Z,8.20
2023-01-12T13:51:16.869Z,8.20
2023-01-12T13:53:43.642Z,8.20
2023-01-12T13:56:20.101Z,8.20
2023-01-12T13:58:51.198Z,8.20
2023-01-12T14:01:26.270Z,8.10
2023-01-12T14:04:08.728Z,8.10
2023-01-12T14:06:48.486Z,8.10
2023-01-12T14:09:22.917Z,8.10
2023-01-12T14:12:10.729Z,8.10
2023-01-12T14:15:02.376Z,8.10
2023-01-12T14:17:34.411Z,8.10
2023-01-12T14:20:01.239Z,8.10
2023-01-12T14:22:27.984Z,8.10
2023-01-12T14:25:13.090Z,8.00
2023-01-12T14:27:47.877Z,8.00
2023-01-12T14:30:14.819Z,8.00
2023-01-12T14:32:44.306Z,8.10
2023-01-12T14:35:15.590Z,8.10
2023-01-12T14:37:43.516Z,8.10
2023-01-12T14:40:23.567Z,8.00
2023-01-12T14:42:50.657Z,8.00
2023-01-12T14:45:23.891Z,8.10
2023-01-12T14:47:51.929Z,8.10
2023-01-12T14:50:20.973Z,8.10
2023-01-12T14:52:48.063Z,8.20
2023-01-12T14:55:16.492Z,8.10
2023-01-12T14:57:47.231Z,8.20
2023-01-12T15:00:20.631Z,8.10
2023-01-12T15:02:51.877Z,8.10
2023-01-12T15:05:21.317Z,8.10
2023-01-12T15:07:56.900Z,8.10
2023-01-12T15:10:30.107Z,8.00
2023-01-12T15:12:57.908Z,8.00
2023-01-12T15:15:27.003Z,8.10
2023-01-12T15:17:55.848Z,8.10
2023-01-12T15:20:22.681Z,8.10
2023-01-12T15:22:49.458Z,8.00
2023-01-12T15:25:18.296Z,8.00
2023-01-12T15:27:45.537Z,8.00
2023-01-12T15:30:12.847Z,8.00
2023-01-12T15:32:47.290Z,8.10
2023-01-12T15:35:18.640Z,8.10
2023-01-12T15:37:45.407Z,8.00
2023-01-12T15:40:13.860Z,8.00
2023-01-12T15:42:40.953Z,8.00
2023-01-12T15:45:18.206Z,8.00
2023-01-12T15:47:44.954Z,8.00
2023-01-12T15:50:12.167Z,8.10
2023-01-12T15:52:40.243Z,8.10
2023-01-12T15:55:08.811Z,8.10
2023-01-12T15:57:36.903Z,8.10
2023-01-12T16:00:04.428Z,8.00
2023-01-12T16:02:34.416Z,8.00
2023-01-12T16:05:01.638Z,8.00
2023-01-12T16:07:28.494Z,8.00
2023-01-12T16:09:57.072Z,8.10
2023-01-12T16:12:24.507Z,8.00
2023-01-12T16:14:51.501Z,8.00
2023-01-12T16:17:18.716Z,8.00
2023-01-12T16:19:45.473Z,8.10
2023-01-12T16:22:16.660Z,8.10
2023-01-12T16:24:43.626Z,8.10
2023-01-12T16:27:11.965Z,8.10
2023-01-12T16:29:38.759Z,8.20
2023-01-12T16:32:06.160Z,8.20
2023-01-12T16:34:33.794Z,8.20
2023-01-12T16:37:00.983Z,8.20
2023-01-12T16:39:28.357Z,8.20
2023-01-12T16:41:56.236Z,8.20
2023-01-12T16:44:24.290Z,8.20
2023-01-12T16:46:51.136Z,8.20
2023-01-12T16:49:18.345Z,8.20
2023-01-12T16:51:45.163Z,8.10
2023-01-12T16:54:11.909Z,8.10
2023-01-12T16:56:39.001Z,8.20
2023-01-12T16:59:05.758Z,8.20
2023-01-12T17:01:34.179Z,8.10
2023-01-12T17:04:01.260Z,8.10
2023-01-12T17:06:29.185Z,8.10
2023-01-12T17:08:56.661Z,8.00
2023-01-12T17:11:23.510Z,8.00
2023-01-12T17:13:53.715Z,8.10
2023-01-12T17:16:21.792Z,8.10
2023-01-12T17:18:50.322Z,8.00
2023-01-12T17:21:18.585Z,7.90
2023-01-12T17:23:46.046Z,7.90
2023-01-12T17:26:14.914Z,7.90
2023-01-12T17:28:43.363Z,8.00
2023-01-12T17:31:12.904Z,8.00
2023-01-12T17:33:39.846Z,8.00
2023-01-12T17:36:10.267Z,8.00
2023-01-12T17:38:38.128Z,8.00
2023-01-12T17:41:07.416Z,8.00
2023-01-12T17:43:34.518Z,8.10
2023-01-12T17:46:02.719Z,8.10
2023-01-12T17:48:29.497Z,8.10
2023-01-12T17:50:56.260Z,8.10
2023-01-12T17:53:24.361Z,8.20
2023-01-12T17:55:53.053Z,8.20
2023-01-12T17:58:19.981Z,8.20
2023-01-12T18:00:46.682Z,8.20
2023-01-12T18:03:13.675Z,8.30
2023-01-12T18:05:42.403Z,8.20
2023-01-12T18:08:09.317Z,8.30
2023-01-12T18:10:37.425Z,8.30
2023-01-12T18:13:04.226Z,8.30
2023-01-12T18:15:31.052Z,8.30
2023-01-12T18:17:57.841Z,8.20
2023-01-12T18:20:24.587Z,8.30
2023-01-12T18:22:51.290Z,8.30
2023-01-12T18:25:18.168Z,8.40
2023-01-12T18:27:46.287Z,8.40
2023-01-12T18:30:15.751Z,8.40
2023-01-12T18:32:43.656Z,8.30
2023-01-12T18:35:10.421Z,8.30
2023-01-12T18:37:37.150Z,8.30
2023-01-12T18:40:04.707Z,8.30
2023-01-12T18:42:31.549Z,8.30
2023-01-12T18:44:59.957Z,8.30
2023-01-12T18:47:26.744Z,8.40
2023-01-12T18:49:53.445Z,8.30
2023-01-12T18:52:20.189Z,8.40
2023-01-12T18:54:47.495Z,8.30
2023-01-12T18:57:14.754Z,8.40
2023-01-12T18:59:42.125Z,8.40
2023-01-12T19:02:11.988Z,8.30
2023-01-12T19:04:38.975Z,8.30
2023-01-12T19:07:05.755Z,8.30
2023-01-12T19:09:32.498Z,8.30
2023-01-12T19:11:59.243Z,8.30
2023-01-12T19:14:26.082Z,8.30
2023-01-12T19:16:52.823Z,8.30
2023-01-12T19:19:20.895Z,8.30
2023-01-12T19:21:47.620Z,8.40
2023-01-12T19:24:14.577Z,8.30
2023-01-12T19:26:41.294Z,8.40
2023-01-12T19:29:08.047Z,8.30
2023-01-12T19:31:34.800Z,8.30
2023-01-12T19:34:01.566Z,8.30
2023-01-12T19:36:29.655Z,8.40
2023-01-12T19:38:56.412Z,8.40
2023-01-12T19:41:23.202Z,8.30
2023-01-12T19:43:50.046Z,8.40
2023-01-12T19:46:16.856Z,8.30
2023-01-12T19:48:43.621Z,8.30
2023-01-12T19:51:11.223Z,8.40
2023-01-12T19:53:39.953Z,8.40
2023-01-12T19:56:10.109Z,8.30
2023-01-12T19:58:36.975Z,8.30
2023-01-12T20:01:03.840Z,8.20
2023-01-12T20:03:30.628Z,8.10
2023-01-12T20:05:57.368Z,8.10
2023-01-12T20:08:25.745Z,8.00
2023-01-12T20:10:54.788Z,7.90
2023-01-12T20:13:21.769Z,7.90
2023-01-12T20:15:48.684Z,7.90
2023-01-12T20:18:16.603Z,7.80
2023-01-12T20:20:43.700Z,7.80
2023-01-12T20:23:10.975Z,7.80
2023-01-12T20:25:39.513Z,7.80
2023-01-12T20:28:08.583Z,7.80
2023-01-12T20:30:38.132Z,7.80
2023-01-12T20:33:06.714Z,7.90
2023-01-12T20:35:34.354Z,7.90
2023-01-12T20:38:03.199Z,8.10
2023-01-12T20:40:29.997Z,8.20
2023-01-12T20:42:57.031Z,8.20
2023-01-12T20:45:26.075Z,8.20
2023-01-12T20:47:52.839Z,8.20
2023-01-12T20:50:19.607Z,8.30
2023-01-12T20:52:46.327Z,8.20
2023-01-12T20:55:13.102Z,8.30
2023-01-12T20:57:39.849Z,8.30
2023-01-12T21:00:08.656Z,8.30
2023-01-12T21:02:37.715Z,8.30
2023-01-12T21:05:05.137Z,8.40
2023-01-12T21:07:34.010Z,8.40
2023-01-12T21:10:00.890Z,8.40
2023-01-12T21:12:27.953Z,8.40
2023-01-12T21:14:54.731Z,8.40
2023-01-12T21:17:21.894Z,8.40
2023-01-12T21:19:50.035Z,8.30
2023-01-12T21:22:16.971Z,8.30
2023-01-12T21:24:44.024Z,8.30
2023-01-12T21:27:12.600Z,8.20
2023-01-12T21:29:39.370Z,8.30
2023-01-12T21:32:06.155Z,8.20
2023-01-12T21:34:32.930Z,8.30
2023-01-12T21:37:01.053Z,8.30
2023-01-12T21:39:27.752Z,8.10
2023-01-12T21:41:54.440Z,8.10
2023-01-12T21:44:21.198Z,8.20
2023-01-12T21:46:47.920Z,8.30
2023-01-12T21:49:14.896Z,8.40
2023-01-12T21:51:41.636Z,8.40
2023-01-12T21:54:09.790Z,8.30
2023-01-12T21:56:39.178Z,8.20
2023-01-12T21:59:05.926Z,8.40
2023-01-12T22:01:32.899Z,8.50
2023-01-12T22:03:59.847Z,8.50
2023-01-12T22:06:26.597Z,8.40
2023-01-12T22:08:54.311Z,8.40
2023-01-12T22:11:22.362Z,8.30
2023-01-12T22:13:49.191Z,8.50
2023-01-12T22:16:16.617Z,8.30
2023-01-12T22:18:45.593Z,8.40
2023-01-12T22:21:12.240Z,8.30
2023-01-12T22:23:40.638Z,8.20
2023-01-12T22:26:09.474Z,8.30
2023-01-12T22:28:40.468Z,8.30
2023-01-12T22:31:09.167Z,8.20
2023-01-12T22:33:36.176Z,8.30
2023-01-12T22:36:03.542Z,8.10
2023-01-12T22:38:30.295Z,8.00
2023-01-12T22:41:02.390Z,8.10
2023-01-12T22:43:29.156Z,7.90
2023-01-12T22:45:57.308Z,8.00
2023-01-12T22:48:24.593Z,8.00
2023-01-12T22:50:51.332Z,8.10
2023-01-12T22:53:18.316Z,8.20
2023-01-12T22:55:45.308Z,8.10
2023-01-12T22:58:12.034Z,8.20
2023-01-12T23:00:38.778Z,8.10
2023-01-12T23:03:10.801Z,8.20
2023-01-12T23:05:44.430Z,8.10
2023-01-12T23:08:11.869Z,8.10
2023-01-12T23:10:38.638Z,8.00
2023-01-12T23:13:05.422Z,8.00
2023-01-12T23:15:36.368Z,8.00
2023-01-12T23:18:03.342Z,8.00
2023-01-12T23:20:32.964Z,8.00
2023-01-12T23:22:59.704Z,8.10
2023-01-12T23:25:26.428Z,8.10
2023-01-12T23:27:53.182Z,8.00
2023-01-12T23:30:20.254Z,8.00
2023-01-12T23:32:47.337Z,7.90
2023-01-12T23:35:14.258Z,8.10
2023-01-12T23:37:42.706Z,7.90
2023-01-12T23:40:11.036Z,7.80
2023-01-12T23:42:37.778Z,8.00
2023-01-12T23:45:05.191Z,7.80
2023-01-12T23:47:31.919Z,7.80
2023-01-12T23:49:59.059Z,7.80
2023-01-12T23:52:25.815Z,7.70
2023-01-12T23:54:54.261Z,7.80
2023-01-12T23:57:21.059Z,7.50
2023-01-12T23:59:48.042Z,7.50
